Aquasco, MD

9:37 PM EST on February 01, 2015 (GMT -0500)
Hugesville/Waldorf - Hidden Valley | Change Station
CLOSE
Current Station
Personal Weather Station
Location: Waldorf, MD
Elevation: 174 ft
Nearby Weather Stations

Elev 174 ft 38.56 °N, 76.79 °W | Updated 13 minutes ago

Rain
Rain
36.9 °F
Feels Like 37 °F
N
0.0
Wind Variable Wind from East
Gusts 1.0 mph

Today
High -- | Low -- °F
--% Chance of Precip.
Yesterday
High -- | Low -- °F
Precip. -- in
7:12 AM 5:28 PM
Waxing Gibbous, 97% visible
Pressure 29.93 in
Visibility 10.0 miles
Clouds Scattered Clouds 2700 ft
Windchill 37 °F
Dew Point 30 °F
Humidity 77%
Rainfall 0.00 in
Snow Depth Not available.
UV 0 out of 12
Pollen 1.70 out of 12
Air Quality Not available.
Flu Activity Not available.
SPECI KADW 020230Z AUTO 11006KT 10SM -RA SCT027 02/M03 A2993 RMK AO2 UPB0206E0210RAB0210 $

More Conditions Fewer Conditions

Pressure 29.93 in
Visibility 10.0 miles
Clouds Scattered Clouds 2700 ft
Windchill 37 °F
Dew Point 30 °F
Humidity 77%
Rainfall 0.00 in
Snow Depth Not available.
UV 0 out of 12
Pollen 1.70 out of 12
Air Quality Not available.
Flu Activity Not available.
SPECI KADW 020230Z AUTO 11006KT 10SM -RA SCT027 02/M03 A2993 RMK AO2 UPB0206E0210RAB0210 $

More Conditions Fewer Conditions

10-Day Weather Forecast

Almanac

Astronomy

Feb. 01, 2015 Rise Set
Actual Time
Civil Twilight
Nautical Twilight
Astronomical Twilight
Moon
Length of Visible Light
Length of Day
Tomorrow will be .
, % of the Moon is Illuminated

Today's Extremes

State Highs State Lows

Community

WunderPhotos

Upload Photos

1,792,659 photos uploaded!

WunderBlogs® & News

Nearby

Air Quality

  Air Quality AQ Index Pollutant
Not available.

Snow Depth

Station Depth Elevation

Earthquake Activity

City Distance Mag. Time & Date
Minimum magnitude displayed is 2.5.

Coastal Water Temperatures

Place Temperature

Nearby Weather Stations